createdAt,value
2022-12-15T00:02:51.532Z,30.90
2022-12-15T00:08:24.810Z,29.90
2022-12-15T00:13:49.723Z,30.10
2022-12-15T00:19:14.700Z,36.00
2022-12-15T00:24:40.098Z,32.70
2022-12-15T00:30:05.221Z,31.10
2022-12-15T00:35:31.343Z,28.20
2022-12-15T00:40:38.951Z,31.50
2022-12-15T00:46:12.454Z,19.40
2022-12-15T00:51:20.794Z,27.90
2022-12-15T00:56:48.107Z,51.90
2022-12-15T01:02:13.103Z,29.30
2022-12-15T01:07:38.612Z,23.20
2022-12-15T01:13:05.048Z,26.90
2022-12-15T01:18:29.994Z,22.60
2022-12-15T01:23:38.599Z,32.70
2022-12-15T01:28:46.252Z,29.20
2022-12-15T01:33:56.732Z,48.60
2022-12-15T01:39:10.857Z,25.90
2022-12-15T01:44:21.935Z,38.00
2022-12-15T01:49:33.045Z,37.00
2022-12-15T01:54:44.348Z,40.10
2022-12-15T01:59:59.147Z,37.50
2022-12-15T02:05:09.004Z,37.40
2022-12-15T02:13:53.254Z,31.00
2022-12-15T02:19:10.585Z,49.10
2022-12-15T02:24:49.724Z,48.00
2022-12-15T02:30:31.470Z,45.30
2022-12-15T02:36:03.397Z,46.70
2022-12-15T02:41:39.206Z,45.10
2022-12-15T02:47:05.963Z,47.60
2022-12-15T02:52:27.799Z,35.50
2022-12-15T02:58:01.169Z,38.90
2022-12-15T03:03:09.817Z,51.50
2022-12-15T03:08:17.222Z,60.00
2022-12-15T03:13:31.480Z,59.50
2022-12-15T03:18:43.197Z,61.70
2022-12-15T03:23:50.647Z,59.20
2022-12-15T03:28:58.197Z,60.20
2022-12-15T03:34:05.757Z,47.00
2022-12-15T03:39:14.121Z,58.70
2022-12-15T03:44:21.386Z,62.90
2022-12-15T03:49:28.876Z,85.20
2022-12-15T03:59:48.500Z,80.20
2022-12-15T04:04:56.099Z,81.10
2022-12-15T04:10:03.442Z,77.40
2022-12-15T04:15:13.046Z,75.40
2022-12-15T04:20:24.293Z,74.90
2022-12-15T04:25:49.000Z,88.80
2022-12-15T04:31:16.934Z,88.40
2022-12-15T04:36:43.091Z,108.10
2022-12-15T04:42:08.036Z,84.70
2022-12-15T04:47:33.139Z,73.80
2022-12-15T04:52:57.845Z,80.50
2022-12-15T04:58:29.614Z,62.50
2022-12-15T05:09:37.579Z,104.40
2022-12-15T05:15:03.046Z,111.60
2022-12-15T05:20:29.306Z,90.20
2022-12-15T05:25:55.801Z,88.70
2022-12-15T05:31:28.337Z,95.00
2022-12-15T05:36:38.868Z,84.00
2022-12-15T05:41:47.730Z,88.70
2022-12-15T05:46:55.720Z,107.70
2022-12-15T05:52:04.031Z,97.50
2022-12-15T05:57:11.253Z,101.90
2022-12-15T06:02:19.124Z,93.80
2022-12-15T06:07:27.047Z,99.20
2022-12-15T06:12:34.761Z,104.70
2022-12-15T06:17:41.996Z,128.70
2022-12-15T06:22:50.440Z,96.80
2022-12-15T06:28:01.728Z,96.40
2022-12-15T06:33:10.921Z,67.40
2022-12-15T06:38:21.778Z,63.40
2022-12-15T06:43:33.658Z,66.60
2022-12-15T06:48:45.312Z,105.80
2022-12-15T06:53:56.532Z,108.60
2022-12-15T06:59:06.472Z,98.40
2022-12-15T07:04:14.430Z,100.50
2022-12-15T07:09:22.064Z,75.40
2022-12-15T07:14:30.691Z,66.40
2022-12-15T07:19:38.195Z,64.70
2022-12-15T07:24:46.230Z,91.60
2022-12-15T07:29:53.834Z,93.20
2022-12-15T07:35:05.487Z,83.40
2022-12-15T07:40:14.291Z,64.70
2022-12-15T07:45:22.083Z,63.60
2022-12-15T07:50:30.403Z,67.20
2022-12-15T07:56:06.423Z,56.80
2022-12-15T08:01:16.474Z,41.10
2022-12-15T08:06:23.925Z,73.40
2022-12-15T08:11:35.461Z,51.40
2022-12-15T08:16:43.933Z,59.10
2022-12-15T08:21:51.635Z,58.70
2022-12-15T08:27:01.617Z,26.70
2022-12-15T08:32:10.910Z,43.90
2022-12-15T08:42:58.429Z,54.20
2022-12-15T08:48:06.062Z,61.70
2022-12-15T08:53:30.918Z,59.10
2022-12-15T08:58:40.660Z,40.90
2022-12-15T09:03:50.721Z,66.10
2022-12-15T09:09:15.652Z,54.90
2022-12-15T09:14:29.457Z,50.30
2022-12-15T09:19:37.321Z,51.70
2022-12-15T09:24:44.658Z,67.20
2022-12-15T09:29:52.254Z,43.40
2022-12-15T09:34:59.656Z,48.60
2022-12-15T09:45:21.259Z,47.60
2022-12-15T09:50:35.352Z,62.30
2022-12-15T09:55:45.376Z,39.40
2022-12-15T10:01:03.189Z,49.30
2022-12-15T10:06:16.993Z,51.10
2022-12-15T10:11:42.427Z,37.20
2022-12-15T10:17:00.205Z,30.20
2022-12-15T10:27:36.351Z,48.80
2022-12-15T10:33:00.542Z,36.20
2022-12-15T10:38:15.560Z,53.70
2022-12-15T10:43:31.421Z,22.10
2022-12-15T10:48:39.780Z,45.20
2022-12-15T10:53:50.944Z,51.10
2022-12-15T10:59:00.285Z,28.40
2022-12-15T11:04:25.490Z,35.90
2022-12-15T11:09:36.704Z,41.90
2022-12-15T11:14:47.917Z,27.90
2022-12-15T11:20:02.984Z,26.80
2022-12-15T11:25:22.302Z,40.70
2022-12-15T11:30:35.171Z,36.30
2022-12-15T11:35:55.532Z,26.40
2022-12-15T11:41:13.637Z,40.00
2022-12-15T11:46:25.344Z,33.30
2022-12-15T11:51:45.406Z,31.90
2022-12-15T11:56:58.193Z,49.60
2022-12-15T12:02:25.486Z,48.80
2022-12-15T12:07:42.452Z,46.70
2022-12-15T12:13:01.576Z,47.70
2022-12-15T12:18:15.410Z,38.40
2022-12-15T12:23:39.822Z,52.50
2022-12-15T12:28:58.481Z,51.70
2022-12-15T12:34:14.749Z,60.70
2022-12-15T12:39:25.758Z,52.10
2022-12-15T12:44:35.619Z,50.20
2022-12-15T12:49:47.020Z,55.90
2022-12-15T12:55:05.034Z,54.90
2022-12-15T13:00:24.040Z,55.60
2022-12-15T13:05:36.356Z,49.80
2022-12-15T13:10:45.552Z,40.20
2022-12-15T13:16:03.598Z,51.00
2022-12-15T13:21:52.876Z,56.80
2022-12-15T13:27:17.417Z,51.40
2022-12-15T13:32:40.144Z,56.60
2022-12-15T13:37:54.346Z,45.60
2022-12-15T13:43:09.423Z,56.80
2022-12-15T13:48:33.012Z,57.70
2022-12-15T13:53:51.488Z,59.80
2022-12-15T13:59:06.309Z,52.20
2022-12-15T14:04:16.815Z,49.70
2022-12-15T14:09:41.431Z,63.40
2022-12-15T14:14:53.305Z,77.80
2022-12-15T14:20:11.867Z,62.20
2022-12-15T14:25:23.074Z,70.90
2022-12-15T14:30:33.878Z,65.00
2022-12-15T14:35:49.469Z,67.90
2022-12-15T14:41:02.151Z,56.30
2022-12-15T14:46:13.015Z,68.90
2022-12-15T14:51:20.886Z,66.70
2022-12-15T14:56:31.776Z,61.60
2022-12-15T15:01:41.850Z,61.90
2022-12-15T15:06:55.196Z,62.60
2022-12-15T15:12:07.204Z,60.80
2022-12-15T15:17:25.552Z,59.70
2022-12-15T15:22:41.097Z,64.10
2022-12-15T15:27:48.823Z,77.10
2022-12-15T15:32:58.640Z,76.20
2022-12-15T15:38:12.792Z,71.80
2022-12-15T15:43:20.784Z,62.10
2022-12-15T15:48:32.404Z,72.20
2022-12-15T15:53:40.535Z,61.00
2022-12-15T15:58:48.556Z,70.10
2022-12-15T16:03:55.718Z,89.60
2022-12-15T16:09:03.290Z,72.90
2022-12-15T16:14:14.551Z,82.60
2022-12-15T16:19:21.914Z,75.00
2022-12-15T16:24:29.359Z,76.60
2022-12-15T16:29:38.537Z,71.70
2022-12-15T16:34:45.902Z,80.20
2022-12-15T16:43:19.852Z,67.10
2022-12-15T16:48:27.182Z,71.40
2022-12-15T16:53:37.970Z,67.40
2022-12-15T16:58:48.759Z,76.80
2022-12-15T17:04:00.562Z,77.10
2022-12-15T17:09:09.575Z,75.60
2022-12-15T17:14:17.079Z,74.30
2022-12-15T17:19:24.391Z,76.10
2022-12-15T17:29:37.343Z,82.20
2022-12-15T17:39:51.915Z,63.20
2022-12-15T17:44:59.406Z,84.70
2022-12-15T17:50:07.651Z,52.80
2022-12-15T17:55:34.836Z,69.00
2022-12-15T18:00:48.914Z,50.90
2022-12-15T18:06:07.614Z,92.70
2022-12-15T18:11:17.977Z,100.80
2022-12-15T18:16:25.288Z,83.10
2022-12-15T18:21:32.691Z,89.50
2022-12-15T18:26:40.623Z,83.70
2022-12-15T18:31:49.770Z,79.40
2022-12-15T18:36:57.841Z,66.30
2022-12-15T18:42:29.518Z,64.10
2022-12-15T18:47:40.183Z,61.70
2022-12-15T18:52:49.262Z,76.90
2022-12-15T18:57:59.012Z,77.80
2022-12-15T19:03:06.669Z,71.10
2022-12-15T19:08:20.446Z,79.90
2022-12-15T19:13:32.000Z,66.00
2022-12-15T19:18:57.094Z,58.10
2022-12-15T19:32:23.096Z,70.60
2022-12-15T19:37:32.177Z,67.90
2022-12-15T19:42:41.165Z,78.00
2022-12-15T19:47:48.979Z,71.00
2022-12-15T19:52:59.407Z,61.70
2022-12-15T20:08:17.720Z,54.90
2022-12-15T20:13:22.556Z,66.00
2022-12-15T20:18:26.862Z,40.90
2022-12-15T20:23:31.596Z,55.60
2022-12-15T20:28:36.265Z,43.90
2022-12-15T20:33:45.266Z,51.50
2022-12-15T20:38:54.717Z,53.20
2022-12-15T20:44:28.694Z,36.80
2022-12-15T20:49:33.068Z,58.90
2022-12-15T20:54:37.230Z,69.80
2022-12-15T20:59:42.009Z,51.40
2022-12-15T21:04:47.006Z,55.50
2022-12-15T21:09:51.228Z,45.20
2022-12-15T21:14:55.456Z,48.40
2022-12-15T21:20:00.531Z,43.00
2022-12-15T21:25:15.023Z,44.80
2022-12-15T21:30:25.489Z,37.90
2022-12-15T21:35:31.884Z,47.40
2022-12-15T21:41:05.352Z,46.60
2022-12-15T21:46:15.421Z,36.30
2022-12-15T21:51:19.539Z,27.60
2022-12-15T21:56:23.492Z,37.60
2022-12-15T22:01:30.414Z,34.90
2022-12-15T22:06:34.496Z,35.00
2022-12-15T22:11:40.355Z,33.30
2022-12-15T22:16:44.788Z,40.70
2022-12-15T22:21:49.323Z,45.20
2022-12-15T22:26:53.295Z,32.80
2022-12-15T22:31:58.809Z,37.30
2022-12-15T22:37:03.075Z,31.10
2022-12-15T22:42:09.293Z,41.00
2022-12-15T22:47:13.561Z,39.60
2022-12-15T22:52:19.876Z,43.10
2022-12-15T22:57:26.219Z,50.20
2022-12-15T23:02:35.838Z,52.30
2022-12-15T23:07:39.641Z,38.30
2022-12-15T23:12:43.547Z,37.50
2022-12-15T23:17:47.257Z,40.30
2022-12-15T23:22:51.082Z,35.00
2022-12-15T23:27:55.610Z,50.70
2022-12-15T23:32:59.446Z,41.60
2022-12-15T23:43:19.223Z,47.20
2022-12-15T23:48:29.912Z,48.30
2022-12-15T23:53:38.423Z,42.20
2022-12-15T23:58:47.636Z,44.30
